sensor_id;sensor_type;location;lat;lon;timestamp;pressure;altitude;pressure_sealevel;temperature;humidity
45621;BME280;31345;51.522;10.702;2023-03-04T00:01:19;99623.13;;;0.36;100.00
45621;BME280;31345;51.522;10.702;2023-03-04T00:03:47;99627.38;;;0.38;100.00
45621;BME280;31345;51.522;10.702;2023-03-04T00:06:19;99617.03;;;0.43;100.00
45621;BME280;31345;51.522;10.702;2023-03-04T00:08:52;99616.22;;;0.39;100.00
45621;BME280;31345;51.522;10.702;2023-03-04T00:11:25;99613.66;;;0.39;100.00
45621;BME280;31345;51.522;10.702;2023-03-04T00:13:59;99618.72;;;0.45;100.00
45621;BME280;31345;51.522;10.702;2023-03-04T00:16:31;99622.09;;;0.48;100.00
45621;BME280;31345;51.522;10.702;2023-03-04T00:19:04;99622.94;;;0.48;100.00
45621;BME280;31345;51.522;10.702;2023-03-04T00:21:32;99613.53;;;0.49;100.00
45621;BME280;31345;51.522;10.702;2023-03-04T00:24:06;99615.16;;;0.53;100.00
45621;BME280;31345;51.522;10.702;2023-03-04T00:26:33;99611.72;;;0.54;100.00
45621;BME280;31345;51.522;10.702;2023-03-04T00:29:02;99604.78;;;0.57;100.00
45621;BME280;31345;51.522;10.702;2023-03-04T00:31:35;99604.06;;;0.48;100.00
45621;BME280;31345;51.522;10.702;2023-03-04T00:34:02;99615.91;;;0.59;100.00
45621;BME280;31345;51.522;10.702;2023-03-04T00:36:29;99604.97;;;0.46;100.00
45621;BME280;31345;51.522;10.702;2023-03-04T00:39:02;99604.28;;;0.35;100.00
45621;BME280;31345;51.522;10.702;2023-03-04T00:41:30;99609.44;;;0.33;100.00
45621;BME280;31345;51.522;10.702;2023-03-04T00:44:04;99611.25;;;0.27;100.00
45621;BME280;31345;51.522;10.702;2023-03-04T00:46:37;99601.88;;;0.24;100.00
45621;BME280;31345;51.522;10.702;2023-03-04T00:49:04;99594.06;;;0.32;100.00
45621;BME280;31345;51.522;10.702;2023-03-04T00:51:37;99589.00;;;0.26;100.00
45621;BME280;31345;51.522;10.702;2023-03-04T00:54:09;99592.69;;;0.07;100.00
45621;BME280;31345;51.522;10.702;2023-03-04T00:56:37;99589.16;;;0.15;100.00
45621;BME280;31345;51.522;10.702;2023-03-04T00:59:11;99584.81;;;0.18;100.00
45621;BME280;31345;51.522;10.702;2023-03-04T01:01:43;99578.91;;;0.13;100.00
45621;BME280;31345;51.522;10.702;2023-03-04T01:04:16;99578.91;;;0.13;100.00
45621;BME280;31345;51.522;10.702;2023-03-04T01:06:48;99585.69;;;0.17;100.00
45621;BME280;31345;51.522;10.702;2023-03-04T01:09:21;99578.66;;;0.30;100.00
45621;BME280;31345;51.522;10.702;2023-03-04T01:11:48;99577.78;;;0.30;100.00
45621;BME280;31345;51.522;10.702;2023-03-04T01:14:23;99578.78;;;0.21;100.00
45621;BME280;31345;51.522;10.702;2023-03-04T01:16:55;99567.78;;;0.11;100.00
45621;BME280;31345;51.522;10.702;2023-03-04T01:19:28;99567.69;;;0.17;100.00
45621;BME280;31345;51.522;10.702;2023-03-04T01:22:00;99571.16;;;0.16;100.00
45621;BME280;31345;51.522;10.702;2023-03-04T01:24:33;99560.19;;;0.03;100.00
45621;BME280;31345;51.522;10.702;2023-03-04T01:27:08;99566.09;;;0.09;100.00
45621;BME280;31345;51.522;10.702;2023-03-04T01:29:41;99556.16;;;-0.15;100.00
45621;BME280;31345;51.522;10.702;2023-03-04T01:32:14;99558.63;;;-0.09;100.00
45621;BME280;31345;51.522;10.702;2023-03-04T01:34:46;99553.56;;;-0.12;100.00
45621;BME280;31345;51.522;10.702;2023-03-04T01:37:14;99543.13;;;-0.01;100.00
45621;BME280;31345;51.522;10.702;2023-03-04T01:39:41;99543.09;;;0.01;100.00
45621;BME280;31345;51.522;10.702;2023-03-04T01:42:17;99531.97;;;-0.01;100.00
45621;BME280;31345;51.522;10.702;2023-03-04T01:44:52;99528.63;;;-0.05;100.00
45621;BME280;31345;51.522;10.702;2023-03-04T01:47:27;99531.13;;;-0.02;100.00
45621;BME280;31345;51.522;10.702;2023-03-04T01:49:56;99526.84;;;-0.03;100.00
45621;BME280;31345;51.522;10.702;2023-03-04T01:52:26;99531.94;;;0.02;100.00
45621;BME280;31345;51.522;10.702;2023-03-04T01:54:59;99516.72;;;-0.12;100.00
45621;BME280;31345;51.522;10.702;2023-03-04T01:57:33;99515.88;;;-0.14;100.00
45621;BME280;31345;51.522;10.702;2023-03-04T02:00:18;99507.28;;;-0.12;100.00
45621;BME280;31345;51.522;10.702;2023-03-04T02:02:47;99515.81;;;-0.08;100.00
45621;BME280;31345;51.522;10.702;2023-03-04T02:05:20;99512.25;;;-0.01;100.00
45621;BME280;31345;51.522;10.702;2023-03-04T02:07:54;99508.53;;;0.19;100.00
45621;BME280;31345;51.522;10.702;2023-03-04T02:10:27;99502.56;;;0.15;100.00
45621;BME280;31345;51.522;10.702;2023-03-04T02:13:00;99499.22;;;0.12;100.00
45621;BME280;31345;51.522;10.702;2023-03-04T02:15:35;99497.44;;;0.14;100.00
45621;BME280;31345;51.522;10.702;2023-03-04T02:18:14;99499.28;;;0.07;100.00
45621;BME280;31345;51.522;10.702;2023-03-04T02:20:53;99494.09;;;0.10;100.00
45621;BME280;31345;51.522;10.702;2023-03-04T02:23:25;99490.84;;;-0.01;100.00
45621;BME280;31345;51.522;10.702;2023-03-04T02:26:16;99485.56;;;0.08;100.00
45621;BME280;31345;51.522;10.702;2023-03-04T02:28:54;99484.53;;;0.17;100.00
45621;BME280;31345;51.522;10.702;2023-03-04T02:31:24;99485.47;;;0.13;100.00
45621;BME280;31345;51.522;10.702;2023-03-04T02:33:59;99484.34;;;0.29;100.00
45621;BME280;31345;51.522;10.702;2023-03-04T02:36:27;99486.94;;;0.28;100.00
45621;BME280;31345;51.522;10.702;2023-03-04T02:39:00;99489.56;;;0.25;100.00
45621;BME280;31345;51.522;10.702;2023-03-04T02:41:36;99488.53;;;0.35;100.00
45621;BME280;31345;51.522;10.702;2023-03-04T02:44:15;99488.63;;;0.30;100.00
45621;BME280;31345;51.522;10.702;2023-03-04T02:46:49;99484.97;;;0.42;100.00
45621;BME280;31345;51.522;10.702;2023-03-04T02:49:23;99486.78;;;0.37;100.00
45621;BME280;31345;51.522;10.702;2023-03-04T02:52:00;99484.25;;;0.34;100.00
45621;BME280;31345;51.522;10.702;2023-03-04T02:54:28;99471.56;;;0.25;100.00
45621;BME280;31345;51.522;10.702;2023-03-04T02:57:00;99472.88;;;0.48;100.00
45621;BME280;31345;51.522;10.702;2023-03-04T02:59:34;99478.16;;;0.40;100.00
45621;BME280;31345;51.522;10.702;2023-03-04T03:02:09;99473.94;;;0.37;100.00
45621;BME280;31345;51.522;10.702;2023-03-04T03:04:41;99475.44;;;0.48;100.00
45621;BME280;31345;51.522;10.702;2023-03-04T03:07:17;99470.75;;;0.23;100.00
45621;BME280;31345;51.522;10.702;2023-03-04T03:09:50;99472.38;;;0.27;100.00
45621;BME280;31345;51.522;10.702;2023-03-04T03:12:25;99462.22;;;0.20;100.00
45621;BME280;31345;51.522;10.702;2023-03-04T03:14:52;99458.84;;;0.15;100.00
45621;BME280;31345;51.522;10.702;2023-03-04T03:17:26;99455.25;;;0.27;100.00
45621;BME280;31345;51.522;10.702;2023-03-04T03:19:58;99456.03;;;0.31;100.00
45621;BME280;31345;51.522;10.702;2023-03-04T03:22:31;99447.56;;;0.24;100.00
45621;BME280;31345;51.522;10.702;2023-03-04T03:25:04;99446.38;;;0.44;100.00
45621;BME280;31345;51.522;10.702;2023-03-04T03:27:33;99443.13;;;0.34;100.00
45621;BME280;31345;51.522;10.702;2023-03-04T03:30:01;99447.91;;;0.54;100.00
45621;BME280;31345;51.522;10.702;2023-03-04T03:32:28;99441.28;;;0.39;100.00
45621;BME280;31345;51.522;10.702;2023-03-04T03:35:01;99449.59;;;0.55;100.00
45621;BME280;31345;51.522;10.702;2023-03-04T03:37:34;99450.91;;;0.77;100.00
45621;BME280;31345;51.522;10.702;2023-03-04T03:40:07;99450.22;;;0.68;100.00
45621;BME280;31345;51.522;10.702;2023-03-04T03:42:36;99452.91;;;0.61;100.00
45621;BME280;31345;51.522;10.702;2023-03-04T03:45:05;99456.88;;;0.77;100.00
45621;BME280;31345;51.522;10.702;2023-03-04T03:50:35;99450.09;;;0.73;100.00
45621;BME280;31345;51.522;10.702;2023-03-04T03:53:07;99456.81;;;0.80;100.00
45621;BME280;31345;51.522;10.702;2023-03-04T03:55:40;99459.44;;;0.79;100.00
45621;BME280;31345;51.522;10.702;2023-03-04T03:58:09;99455.75;;;0.92;100.00
45621;BME280;31345;51.522;10.702;2023-03-04T04:00:41;99454.78;;;0.98;100.00
45621;BME280;31345;51.522;10.702;2023-03-04T04:03:12;99454.03;;;0.91;100.00
45621;BME280;31345;51.522;10.702;2023-03-04T04:05:46;99460.66;;;1.05;100.00
45621;BME280;31345;51.522;10.702;2023-03-04T04:08:18;99450.06;;;1.17;100.00
45621;BME280;31345;51.522;10.702;2023-03-04T04:10:51;99456.16;;;1.15;100.00
45621;BME280;31345;51.522;10.702;2023-03-04T04:13:25;99442.34;;;1.17;100.00
45621;BME280;31345;51.522;10.702;2023-03-04T04:15:57;99438.25;;;1.08;100.00
45621;BME280;31345;51.522;10.702;2023-03-04T04:18:29;99435.50;;;1.16;100.00
45621;BME280;31345;51.522;10.702;2023-03-04T04:21:02;99439.91;;;1.09;100.00
45621;BME280;31345;51.522;10.702;2023-03-04T04:23:30;99440.69;;;1.15;100.00
45621;BME280;31345;51.522;10.702;2023-03-04T04:25:58;99449.97;;;1.22;100.00
45621;BME280;31345;51.522;10.702;2023-03-04T04:28:32;99439.88;;;1.13;100.00
45621;BME280;31345;51.522;10.702;2023-03-04T04:31:06;99439.03;;;1.12;100.00
45621;BME280;31345;51.522;10.702;2023-03-04T04:33:33;99448.47;;;1.12;100.00
45621;BME280;31345;51.522;10.702;2023-03-04T04:36:11;99445.00;;;1.14;100.00
45621;BME280;31345;51.522;10.702;2023-03-04T04:38:44;99443.00;;;1.27;100.00
45621;BME280;31345;51.522;10.702;2023-03-04T04:41:18;99445.84;;;1.15;100.00
45621;BME280;31345;51.522;10.702;2023-03-04T04:43:53;99450.09;;;1.16;100.00
45621;BME280;31345;51.522;10.702;2023-03-04T04:46:25;99448.44;;;1.13;100.00
45621;BME280;31345;51.522;10.702;2023-03-04T04:48:58;99463.72;;;1.21;100.00
45621;BME280;31345;51.522;10.702;2023-03-04T04:51:26;99450.59;;;1.32;100.00
45621;BME280;31345;51.522;10.702;2023-03-04T04:53:59;99449.81;;;1.30;100.00
45621;BME280;31345;51.522;10.702;2023-03-04T04:56:27;99456.94;;;1.17;100.00
45621;BME280;31345;51.522;10.702;2023-03-04T04:59:04;99460.81;;;1.36;100.00
45621;BME280;31345;51.522;10.702;2023-03-04T05:01:37;99449.97;;;1.22;100.00
45621;BME280;31345;51.522;10.702;2023-03-04T05:04:11;99453.69;;;1.49;100.00
45621;BME280;31345;51.522;10.702;2023-03-04T05:06:43;99453.78;;;1.43;100.00
45621;BME280;31345;51.522;10.702;2023-03-04T05:09:16;99450.56;;;1.33;100.00
45621;BME280;31345;51.522;10.702;2023-03-04T05:11:49;99452.00;;;1.47;100.00
45621;BME280;31345;51.522;10.702;2023-03-04T05:14:23;99448.47;;;1.53;100.00
45621;BME280;31345;51.522;10.702;2023-03-04T05:16:56;99446.53;;;1.61;100.00
45621;BME280;31345;51.522;10.702;2023-03-04T05:19:23;99445.09;;;1.49;100.00
45621;BME280;31345;51.522;10.702;2023-03-04T05:21:56;99447.78;;;1.82;100.00
45621;BME280;31345;51.522;10.702;2023-03-04T05:24:23;99449.53;;;1.80;100.00
45621;BME280;31345;51.522;10.702;2023-03-04T05:26:56;99448.91;;;1.70;100.00
45621;BME280;31345;51.522;10.702;2023-03-04T05:29:29;99444.50;;;1.74;100.00
45621;BME280;31345;51.522;10.702;2023-03-04T05:32:02;99439.44;;;1.71;100.00
45621;BME280;31345;51.522;10.702;2023-03-04T05:34:30;99438.41;;;1.78;100.00
45621;BME280;31345;51.522;10.702;2023-03-04T05:37:02;99430.06;;;1.68;100.00
45621;BME280;31345;51.522;10.702;2023-03-04T05:39:35;99439.56;;;1.65;100.00
45621;BME280;31345;51.522;10.702;2023-03-04T05:42:07;99433.25;;;1.78;100.00
45621;BME280;31345;51.522;10.702;2023-03-04T05:44:41;99435.94;;;1.73;100.00
45621;BME280;31345;51.522;10.702;2023-03-04T05:47:13;99438.69;;;1.66;100.00
45621;BME280;31345;51.522;10.702;2023-03-04T05:49:41;99430.72;;;1.77;100.00
45621;BME280;31345;51.522;10.702;2023-03-04T05:52:14;99438.59;;;1.70;100.00
45621;BME280;31345;51.522;10.702;2023-03-04T05:54:47;99437.06;;;1.61;100.00
45621;BME280;31345;51.522;10.702;2023-03-04T05:57:19;99435.03;;;1.76;100.00
45621;BME280;31345;51.522;10.702;2023-03-04T05:59:48;99434.06;;;1.80;100.00
45621;BME280;31345;51.522;10.702;2023-03-04T06:02:20;99425.81;;;1.66;100.00
45621;BME280;31345;51.522;10.702;2023-03-04T06:04:53;99426.25;;;1.83;100.00
45621;BME280;31345;51.522;10.702;2023-03-04T06:07:25;99439.25;;;1.79;100.00
45621;BME280;31345;51.522;10.702;2023-03-04T06:09:58;99439.28;;;1.77;100.00
45621;BME280;31345;51.522;10.702;2023-03-04T06:12:25;99431.63;;;1.74;100.00
45621;BME280;31345;51.522;10.702;2023-03-04T06:15:00;99437.63;;;1.74;100.00
45621;BME280;31345;51.522;10.702;2023-03-04T06:17:28;99448.72;;;1.78;100.00
45621;BME280;31345;51.522;10.702;2023-03-04T06:20:02;99448.59;;;1.83;100.00
45621;BME280;31345;51.522;10.702;2023-03-04T06:22:35;99448.47;;;1.89;100.00
45621;BME280;31345;51.522;10.702;2023-03-04T06:25:11;99456.31;;;1.84;100.00
45621;BME280;31345;51.522;10.702;2023-03-04T06:27:43;99446.09;;;1.80;100.00
45621;BME280;31345;51.522;10.702;2023-03-04T06:30:18;99451.09;;;1.87;100.00
45621;BME280;31345;51.522;10.702;2023-03-04T06:32:50;99447.69;;;1.85;100.00
45621;BME280;31345;51.522;10.702;2023-03-04T06:35:23;99453.28;;;2.03;100.00
45621;BME280;31345;51.522;10.702;2023-03-04T06:37:55;99453.44;;;1.97;100.00
45621;BME280;31345;51.522;10.702;2023-03-04T06:40:28;99451.09;;;1.87;100.00
45621;BME280;31345;51.522;10.702;2023-03-04T06:43:00;99451.97;;;1.86;100.00
45621;BME280;31345;51.522;10.702;2023-03-04T06:45:34;99461.00;;;2.05;100.00
45621;BME280;31345;51.522;10.702;2023-03-04T06:48:06;99460.06;;;2.07;100.00
45621;BME280;31345;51.522;10.702;2023-03-04T06:50:39;99453.28;;;2.03;100.00
45621;BME280;31345;51.522;10.702;2023-03-04T06:53:07;99458.16;;;2.14;100.00
45621;BME280;31345;51.522;10.702;2023-03-04T06:55:39;99451.56;;;2.02;100.00
45621;BME280;31345;51.522;10.702;2023-03-04T06:58:12;99452.03;;;2.18;100.00
45621;BME280;31345;51.522;10.702;2023-03-04T07:00:45;99443.69;;;2.08;100.00
45621;BME280;31345;51.522;10.702;2023-03-04T07:03:18;99446.53;;;1.97;100.00
45621;BME280;31345;51.522;10.702;2023-03-04T07:05:46;99448.81;;;2.10;100.00
45621;BME280;31345;51.522;10.702;2023-03-04T07:08:13;99450.41;;;2.16;100.00
45621;BME280;31345;51.522;10.702;2023-03-04T07:10:46;99452.13;;;2.15;100.00
45621;BME280;31345;51.522;10.702;2023-03-04T07:13:18;99455.47;;;2.19;100.00
45621;BME280;31345;51.522;10.702;2023-03-04T07:15:52;99456.44;;;2.14;100.00
45621;BME280;31345;51.522;10.702;2023-03-04T07:18:19;99452.88;;;2.20;100.00
45621;BME280;31345;51.522;10.702;2023-03-04T07:20:52;99456.84;;;2.32;100.00
45621;BME280;31345;51.522;10.702;2023-03-04T07:23:25;99453.72;;;2.19;100.00
45621;BME280;31345;51.522;10.702;2023-03-04T07:25:57;99456.06;;;2.30;100.00
45621;BME280;31345;51.522;10.702;2023-03-04T07:28:25;99461.06;;;2.35;100.00
45621;BME280;31345;51.522;10.702;2023-03-04T07:31:10;99456.81;;;2.34;100.00
45621;BME280;31345;51.522;10.702;2023-03-04T07:33:38;99462.59;;;2.44;100.00
45621;BME280;31345;51.522;10.702;2023-03-04T07:36:11;99462.28;;;2.55;100.00
45621;BME280;31345;51.522;10.702;2023-03-04T07:38:45;99461.44;;;2.54;100.00
45621;BME280;31345;51.522;10.702;2023-03-04T07:41:20;99457.13;;;2.55;100.00
45621;BME280;31345;51.522;10.702;2023-03-04T07:43:55;99457.97;;;2.55;100.00
45621;BME280;31345;51.522;10.702;2023-03-04T07:46:24;99471.66;;;2.59;100.00
45621;BME280;31345;51.522;10.702;2023-03-04T07:48:57;99462.72;;;2.71;100.00
45621;BME280;31345;51.522;10.702;2023-03-04T07:51:26;99459.25;;;2.72;100.00
45621;BME280;31345;51.522;10.702;2023-03-04T07:53:59;99455.00;;;3.01;100.00
45621;BME280;31345;51.522;10.702;2023-03-04T07:56:33;99458.28;;;3.06;100.00
45621;BME280;31345;51.522;10.702;2023-03-04T07:59:01;99454.84;;;3.07;100.00
45621;BME280;31345;51.522;10.702;2023-03-04T08:01:36;99455.06;;;2.98;100.00
45621;BME280;31345;51.522;10.702;2023-03-04T08:04:09;99455.41;;;3.17;100.00
45621;BME280;31345;51.522;10.702;2023-03-04T08:06:41;99459.63;;;3.20;100.00
45621;BME280;31345;51.522;10.702;2023-03-04T08:09:10;99452.66;;;3.22;100.00
45621;BME280;31345;51.522;10.702;2023-03-04T08:11:38;99454.38;;;3.23;100.00
45621;BME280;31345;51.522;10.702;2023-03-04T08:14:11;99465.34;;;3.31;100.00
45621;BME280;31345;51.522;10.702;2023-03-04T08:16:46;99448.88;;;3.34;100.00
45621;BME280;31345;51.522;10.702;2023-03-04T08:19:18;99457.47;;;3.34;100.00
45621;BME280;31345;51.522;10.702;2023-03-04T08:21:51;99454.50;;;3.18;100.00
45621;BME280;31345;51.522;10.702;2023-03-04T08:24:18;99457.09;;;3.18;100.00
45621;BME280;31345;51.522;10.702;2023-03-04T08:26:51;99457.00;;;3.21;100.00
45621;BME280;31345;51.522;10.702;2023-03-04T08:29:24;99454.38;;;3.23;100.00
45621;BME280;31345;51.522;10.702;2023-03-04T08:31:53;99452.41;;;3.01;100.00
45621;BME280;31345;51.522;10.702;2023-03-04T08:34:27;99457.41;;;3.07;100.00
45621;BME280;31345;51.522;10.702;2023-03-04T08:36:55;99454.38;;;3.23;100.00
45621;BME280;31345;51.522;10.702;2023-03-04T08:39:27;99451.31;;;3.10;100.00
45621;BME280;31345;51.522;10.702;2023-03-04T08:41:55;99442.78;;;3.06;100.00
45621;BME280;31345;51.522;10.702;2023-03-04T08:44:23;99452.94;;;3.12;100.00
45621;BME280;31345;51.522;10.702;2023-03-04T08:46:52;99448.69;;;3.11;100.00
45621;BME280;31345;51.522;10.702;2023-03-04T08:49:25;99447.13;;;3.06;100.00
45621;BME280;31345;51.522;10.702;2023-03-04T08:51:57;99452.72;;;3.20;100.00
45621;BME280;31345;51.522;10.702;2023-03-04T08:54:30;99452.09;;;3.12;100.00
45621;BME280;31345;51.522;10.702;2023-03-04T08:57:02;99445.19;;;3.12;100.00
45621;BME280;31345;51.522;10.702;2023-03-04T08:59:39;99446.78;;;3.47;100.00
45621;BME280;31345;51.522;10.702;2023-03-04T09:02:13;99437.47;;;3.41;100.00
45621;BME280;31345;51.522;10.702;2023-03-04T09:04:41;99437.22;;;3.49;100.00
45621;BME280;31345;51.522;10.702;2023-03-04T09:07:13;99439.84;;;3.47;100.00
45621;BME280;31345;51.522;10.702;2023-03-04T09:09:46;99436.19;;;3.54;100.00
45621;BME280;31345;51.522;10.702;2023-03-04T09:12:18;99438.44;;;3.65;100.00
45621;BME280;31345;51.522;10.702;2023-03-04T09:14:50;99431.19;;;3.77;100.00
45621;BME280;31345;51.522;10.702;2023-03-04T09:17:19;99431.88;;;3.82;100.00
45621;BME280;31345;51.522;10.702;2023-03-04T09:19:52;99425.41;;;3.95;100.00
45621;BME280;31345;51.522;10.702;2023-03-04T09:22:24;99427.09;;;3.97;100.00
45621;BME280;31345;51.522;10.702;2023-03-04T09:24:52;99419.28;;;3.98;100.00
45621;BME280;31345;51.522;10.702;2023-03-04T09:27:19;99422.00;;;3.93;100.00
45621;BME280;31345;51.522;10.702;2023-03-04T09:29:52;99426.47;;;3.90;100.00
45621;BME280;31345;51.522;10.702;2023-03-04T09:32:26;99429.91;;;3.90;100.00
45621;BME280;31345;51.522;10.702;2023-03-04T09:34:58;99428.78;;;3.98;100.00
45621;BME280;31345;51.522;10.702;2023-03-04T09:37:31;99423.97;;;3.87;100.00
45621;BME280;31345;51.522;10.702;2023-03-04T09:40:04;99426.25;;;3.96;100.00
45621;BME280;31345;51.522;10.702;2023-03-04T09:42:43;99429.16;;;4.12;100.00
45621;BME280;31345;51.522;10.702;2023-03-04T09:45:18;99429.44;;;4.04;100.00
45621;BME280;31345;51.522;10.702;2023-03-04T09:47:53;99419.38;;;3.95;100.00
45621;BME280;31345;51.522;10.702;2023-03-04T09:50:21;99419.44;;;4.19;100.00
45621;BME280;31345;51.522;10.702;2023-03-04T09:53:04;99421.22;;;4.18;100.00
45621;BME280;31345;51.522;10.702;2023-03-04T09:55:39;99423.31;;;4.32;100.00
45621;BME280;31345;51.522;10.702;2023-03-04T09:58:24;99413.16;;;4.26;100.00
45621;BME280;31345;51.522;10.702;2023-03-04T10:01:02;99408.78;;;4.28;100.00
45621;BME280;31345;51.522;10.702;2023-03-04T10:03:43;99405.94;;;4.36;100.00
45621;BME280;31345;51.522;10.702;2023-03-04T10:06:19;99405.06;;;4.36;100.00
45621;BME280;31345;51.522;10.702;2023-03-04T10:08:55;99403.25;;;4.63;100.00
45621;BME280;31345;51.522;10.702;2023-03-04T10:11:34;99402.00;;;4.73;100.00
45621;BME280;31345;51.522;10.702;2023-03-04T10:14:29;99401.34;;;4.68;100.00
45621;BME280;31345;51.522;10.702;2023-03-04T10:17:11;99398.19;;;4.60;100.00
45621;BME280;31345;51.522;10.702;2023-03-04T10:19:53;99396.09;;;4.70;100.00
45621;BME280;31345;51.522;10.702;2023-03-04T10:22:31;99394.19;;;4.75;100.00
45621;BME280;31345;51.522;10.702;2023-03-04T10:25:15;99394.84;;;4.80;100.00
45621;BME280;31345;51.522;10.702;2023-03-04T10:27:48;99392.84;;;4.89;100.00
45621;BME280;31345;51.522;10.702;2023-03-04T10:30:22;99398.75;;;4.92;100.00
45621;BME280;31345;51.522;10.702;2023-03-04T10:32:57;99392.22;;;4.82;100.00
45621;BME280;31345;51.522;10.702;2023-03-04T10:35:33;99391.78;;;4.70;100.00
45621;BME280;31345;51.522;10.702;2023-03-04T10:38:08;99397.38;;;4.82;100.00
45621;BME280;31345;51.522;10.702;2023-03-04T10:40:41;99390.25;;;4.89;100.00
45621;BME280;31345;51.522;10.702;2023-03-04T10:43:16;99398.09;;;4.87;100.00
45621;BME280;31345;51.522;10.702;2023-03-04T10:45:43;99393.06;;;4.82;100.00
45621;BME280;31345;51.522;10.702;2023-03-04T10:48:20;99394.69;;;4.85;100.00
45621;BME280;31345;51.522;10.702;2023-03-04T10:51:10;99396.91;;;4.94;100.00
45621;BME280;31345;51.522;10.702;2023-03-04T10:53:40;99399.34;;;4.99;100.00
45621;BME280;31345;51.522;10.702;2023-03-04T10:56:34;99394.63;;;4.87;100.00
45621;BME280;31345;51.522;10.702;2023-03-04T10:59:33;99394.19;;;4.75;100.00
45621;BME280;31345;51.522;10.702;2023-03-04T11:02:19;99397.75;;;4.72;100.00
45621;BME280;31345;51.522;10.702;2023-03-04T11:04:54;99401.00;;;4.78;100.00
45621;BME280;31345;51.522;10.702;2023-03-04T11:07:25;99389.34;;;4.66;100.00
45621;BME280;31345;51.522;10.702;2023-03-04T11:09:53;99388.50;;;4.89;100.00
45621;BME280;31345;51.522;10.702;2023-03-04T11:12:32;99392.94;;;4.85;100.00
45621;BME280;31345;51.522;10.702;2023-03-04T11:15:17;99381.19;;;4.77;100.00
45621;BME280;31345;51.522;10.702;2023-03-04T11:17:48;99387.72;;;4.87;100.00
45621;BME280;31345;51.522;10.702;2023-03-04T11:20:28;99393.97;;;4.81;100.00
45621;BME280;31345;51.522;10.702;2023-03-04T11:23:05;99389.03;;;4.97;100.00
45621;BME280;31345;51.522;10.702;2023-03-04T11:25:46;99378.50;;;5.02;100.00
45621;BME280;31345;51.522;10.702;2023-03-04T11:28:18;99374.34;;;4.98;100.00
45621;BME280;31345;51.522;10.702;2023-03-04T11:30:54;99388.22;;;4.97;100.00
45621;BME280;31345;51.522;10.702;2023-03-04T11:33:39;99385.00;;;4.90;100.00
45621;BME280;31345;51.522;10.702;2023-03-04T11:36:25;99384.50;;;4.80;100.00
45621;BME280;31345;51.522;10.702;2023-03-04T11:38:57;99374.13;;;4.80;100.00
45621;BME280;31345;51.522;10.702;2023-03-04T11:41:32;99377.09;;;4.93;100.00
45621;BME280;31345;51.522;10.702;2023-03-04T11:44:07;99379.66;;;4.95;100.00
45621;BME280;31345;51.522;10.702;2023-03-04T11:46:53;99378.88;;;4.93;100.00
45621;BME280;31345;51.522;10.702;2023-03-04T11:49:47;99374.75;;;4.87;100.00
45621;BME280;31345;51.522;10.702;2023-03-04T11:52:36;99373.25;;;4.81;100.00
45621;BME280;31345;51.522;10.702;2023-03-04T11:55:26;99373.75;;;4.91;100.00
45621;BME280;31345;51.522;10.702;2023-03-04T11:58:09;99371.22;;;4.90;100.00
45621;BME280;31345;51.522;10.702;2023-03-04T12:00:51;99363.38;;;4.91;100.00
45621;BME280;31345;51.522;10.702;2023-03-04T12:03:34;99359.81;;;4.94;100.00
45621;BME280;31345;51.522;10.702;2023-03-04T12:06:16;99360.13;;;5.08;100.00
45621;BME280;31345;51.522;10.702;2023-03-04T12:08:56;99345.78;;;5.22;100.00
45621;BME280;31345;51.522;10.702;2023-03-04T12:11:35;99350.84;;;5.47;100.00
45621;BME280;31345;51.522;10.702;2023-03-04T12:14:16;99332.72;;;5.25;100.00
45621;BME280;31345;51.522;10.702;2023-03-04T12:17:19;99332.81;;;5.44;100.00
45621;BME280;31345;51.522;10.702;2023-03-04T12:20:06;99323.88;;;5.93;100.00
45621;BME280;31345;51.522;10.702;2023-03-04T12:22:43;99309.34;;;6.68;97.00
45621;BME280;31345;51.522;10.702;2023-03-04T12:25:36;99308.94;;;6.58;95.52
45621;BME280;31345;51.522;10.702;2023-03-04T12:28:37;99302.25;;;6.33;94.62
45621;BME280;31345;51.522;10.702;2023-03-04T12:31:35;99307.47;;;6.33;95.19
45621;BME280;31345;51.522;10.702;2023-03-04T12:34:31;99309.50;;;6.26;94.71
45621;BME280;31345;51.522;10.702;2023-03-04T12:37:19;99312.34;;;6.20;97.43
45621;BME280;31345;51.522;10.702;2023-03-04T12:43:26;99303.28;;;6.09;98.24
45621;BME280;31345;51.522;10.702;2023-03-04T12:46:10;99306.09;;;6.05;98.99
45621;BME280;31345;51.522;10.702;2023-03-04T12:48:58;99303.50;;;6.05;99.32
45621;BME280;31345;51.522;10.702;2023-03-04T12:51:31;99294.16;;;6.20;96.97
45621;BME280;31345;51.522;10.702;2023-03-04T12:54:13;99288.03;;;6.01;98.46
45621;BME280;31345;51.522;10.702;2023-03-04T12:56:50;99279.22;;;6.06;99.52
45621;BME280;31345;51.522;10.702;2023-03-04T12:59:31;99282.72;;;6.24;98.38
45621;BME280;31345;51.522;10.702;2023-03-04T13:05:22;99284.28;;;6.28;99.14
45621;BME280;31345;51.522;10.702;2023-03-04T13:08:02;99278.47;;;6.61;99.25
45621;BME280;31345;51.522;10.702;2023-03-04T13:10:34;99279.66;;;6.73;99.08
45621;BME280;31345;51.522;10.702;2023-03-04T13:13:35;99285.47;;;6.78;99.82
45621;BME280;31345;51.522;10.702;2023-03-04T13:16:33;99280.34;;;6.58;98.31
45621;BME280;31345;51.522;10.702;2023-03-04T13:19:02;99284.53;;;7.16;98.08
45621;BME280;31345;51.522;10.702;2023-03-04T13:21:55;99277.59;;;7.35;97.60
45621;BME280;31345;51.522;10.702;2023-03-04T13:24:44;99275.28;;;7.65;94.64
45621;BME280;31345;51.522;10.702;2023-03-04T13:27:46;99278.88;;;7.63;94.95
45621;BME280;31345;51.522;10.702;2023-03-04T13:33:54;99277.75;;;6.58;99.00
45621;BME280;31345;51.522;10.702;2023-03-04T13:39:31;99288.22;;;6.18;100.00
45621;BME280;31345;51.522;10.702;2023-03-04T13:42:38;99284.88;;;5.95;100.00
45621;BME280;31345;51.522;10.702;2023-03-04T13:45:31;99284.44;;;5.85;100.00